Time;durP1;ratioP1;P1;durP2;ratioP2;P2;SDS_P1;SDS_P2;PMS_P1;PMS_P2;Temp;Humidity;BMP_temperature;BMP_pressure;BME280_temperature;BME280_humidity;BME280_pressure;Samples;Min_cycle;Max_cycle;Signal;HPM_P1;HPM_P2
2021/03/21 00:02:22;;;;;;;6.97;4.23;;;;;;;5.90;88.66;102587.00;5078995;28;20286;-76
2021/03/21 00:04:47;;;;;;;7.50;4.07;;;;;;;5.91;88.30;102587.13;5087642;28;20020;-77
2021/03/21 00:07:12;;;;;;;6.73;4.63;;;;;;;5.99;88.34;102584.22;5081708;28;20361;-76
2021/03/21 00:09:38;;;;;;;7.40;4.97;;;;;;;5.96;88.26;102579.78;5100767;28;20270;-77
2021/03/21 00:12:04;;;;;;;6.80;4.97;;;;;;;5.97;88.06;102573.91;5099856;28;20020;-77
2021/03/21 00:14:31;;;;;;;10.02;5.93;;;;;;;5.85;88.69;102570.44;5100476;28;20028;-77
2021/03/21 00:16:57;;;;;;;13.50;7.57;;;;;;;5.88;89.08;102576.66;5105186;28;20024;-78
2021/03/21 00:19:23;;;;;;;12.87;7.57;;;;;;;6.00;89.14;102580.88;5103950;28;20392;-77
2021/03/21 00:21:48;;;;;;;15.07;8.95;;;;;;;6.01;89.00;102570.78;5100908;28;20023;-77
2021/03/21 00:24:13;;;;;;;14.60;8.67;;;;;;;5.96;88.75;102567.03;5097674;28;20023;-77
2021/03/21 00:26:39;;;;;;;13.50;8.93;;;;;;;6.00;89.52;102580.88;5086955;28;20269;-76
2021/03/21 00:29:06;;;;;;;12.37;8.10;;;;;;;6.02;88.87;102582.75;5081110;28;20016;-78
2021/03/21 00:31:31;;;;;;;12.47;8.63;;;;;;;6.00;89.14;102581.75;5102058;28;20647;-77
2021/03/21 00:33:56;;;;;;;12.85;9.80;;;;;;;5.97;89.37;102573.91;5086000;28;20027;-78
2021/03/21 00:36:22;;;;;;;13.30;9.53;;;;;;;6.02;89.46;102579.31;5105051;28;20096;-77
2021/03/21 00:38:52;;;;;;;13.07;9.17;;;;;;;5.95;89.72;102577.13;5083005;28;20277;-77
2021/03/21 00:41:22;;;;;;;12.57;7.87;;;;;;;6.07;89.58;102578.84;5084169;28;20023;-78
2021/03/21 00:43:47;;;;;;;13.07;8.70;;;;;;;5.98;89.52;102568.03;5080981;28;20063;-77
2021/03/21 00:46:13;;;;;;;10.77;8.27;;;;;;;5.97;89.92;102565.38;5082375;28;20638;-76
2021/03/21 00:48:42;;;;;;;12.18;8.70;;;;;;;5.99;90.03;102569.78;5106152;28;20027;-77
2021/03/21 00:51:11;;;;;;;14.27;8.97;;;;;;;5.94;90.06;102571.13;5077778;28;20020;-77
2021/03/21 00:53:37;;;;;;;15.70;7.93;;;;;;;5.90;90.55;102561.50;5085552;28;20081;-78
2021/03/21 00:56:04;;;;;;;12.98;9.07;;;;;;;5.87;90.65;102564.69;5083012;28;20020;-77
2021/03/21 00:58:29;;;;;;;13.43;9.47;;;;;;;5.98;90.17;102560.38;5080893;28;20028;-77
2021/03/21 01:00:57;;;;;;;11.60;8.33;;;;;;;5.96;90.17;102556.81;5084070;28;20086;-77
2021/03/21 01:03:23;;;;;;;14.77;9.20;;;;;;;5.90;90.70;102549.63;5101471;28;20273;-79
2021/03/21 01:05:57;;;;;;;15.25;8.90;;;;;;;5.83;90.57;102546.50;5082929;28;20028;-76
2021/03/21 01:08:26;;;;;;;12.17;8.23;;;;;;;5.88;90.60;102555.38;5084421;28;20103;-76
2021/03/21 01:10:57;;;;;;;12.87;8.63;;;;;;;5.90;90.54;102548.75;5087583;28;20055;-78
2021/03/21 01:13:24;;;;;;;13.63;8.63;;;;;;;5.81;90.47;102542.94;5082490;28;20039;-77
2021/03/21 01:15:50;;;;;;;12.63;7.93;;;;;;;5.85;90.69;102539.84;5087393;28;20031;-78
2021/03/21 01:18:28;;;;;;;13.30;8.37;;;;;;;5.85;90.22;102540.75;5079196;28;20477;-78
2021/03/21 01:20:54;;;;;;;16.83;9.63;;;;;;;5.91;90.59;102538.66;5104216;28;20034;-77
2021/03/21 01:23:20;;;;;;;;;;;;;;;5.93;90.27;102533.66;5094409;28;20098;-76
2021/03/21 01:25:45;;;;;;;22.40;9.67;;;;;;;5.93;90.53;102531.09;5082893;28;20411;-76
2021/03/21 01:28:19;;;;;;;12.27;8.30;;;;;;;5.93;90.37;102524.34;5083905;28;20028;-77
2021/03/21 01:30:45;;;;;;;14.53;8.83;;;;;;;5.91;90.34;102514.81;5081556;28;20023;-77
2021/03/21 01:33:10;;;;;;;12.57;9.40;;;;;;;5.86;90.27;102511.03;5080402;28;20020;-77
2021/03/21 01:35:36;;;;;;;15.32;9.20;;;;;;;5.87;90.70;102511.13;5078007;28;20027;-77
2021/03/21 01:38:01;;;;;;;15.45;11.25;;;;;;;5.76;90.86;102501.84;5089191;28;20056;-77
2021/03/21 01:40:26;;;;;;;17.60;10.68;;;;;;;5.82;91.61;102496.28;5083933;28;20046;-77
2021/03/21 01:42:52;;;;;;;17.50;11.55;;;;;;;5.82;91.40;102483.53;5083019;28;20031;-78
2021/03/21 01:45:45;;;;;;;18.58;10.75;;;;;;;5.82;91.05;102483.53;5082804;28;20673;-77
2021/03/21 01:48:50;;;;;;;18.43;11.53;;;;;;;5.91;90.95;102484.22;5077797;28;20032;-77
2021/03/21 01:51:27;;;;;;;19.53;10.63;;;;;;;5.91;90.60;102471.47;5082702;28;20022;-75
2021/03/21 01:53:57;;;;;;;17.63;10.07;;;;;;;5.87;90.40;102470.34;5084585;28;20089;-77
2021/03/21 01:56:25;;;;;;;20.10;11.67;;;;;;;5.87;90.77;102472.88;5084615;28;20031;-77
2021/03/21 01:59:00;;;;;;;19.70;11.97;;;;;;;5.87;90.76;102477.97;5084607;28;20055;-77
2021/03/21 02:01:28;;;;;;;16.70;11.17;;;;;;;5.95;90.53;102480.19;5081373;28;20111;-77
2021/03/21 02:03:54;;;;;;;15.33;10.50;;;;;;;5.96;89.77;102470.09;5086187;28;20500;-76
2021/03/21 02:06:32;;;;;;;;;;;;;;;5.92;90.20;102465.56;5082866;28;20021;-78
2021/03/21 02:09:25;;;;;;;18.48;10.18;;;;;;;5.93;89.94;102460.56;5085159;28;20262;-77
2021/03/21 02:12:04;;;;;;;18.70;11.43;;;;;;;6.09;89.58;102454.84;5083350;28;20040;-77
2021/03/21 02:14:50;;;;;;;17.33;10.87;;;;;;;6.04;89.46;102456.19;5081254;28;20038;-77
2021/03/21 02:17:24;;;;;;;18.77;11.23;;;;;;;6.05;89.60;102450.31;5079570;28;20032;-76
2021/03/21 02:20:23;;;;;;;18.07;11.17;;;;;;;6.05;89.24;102445.22;5077732;28;20039;-77
2021/03/21 02:22:58;;;;;;;18.47;10.77;;;;;;;6.10;88.78;102446.41;5081132;28;20067;-76
2021/03/21 02:25:24;;;;;;;15.70;10.07;;;;;;;6.10;88.84;102438.75;5079670;28;20035;-75
2021/03/21 02:27:52;;;;;;;21.50;11.50;;;;;;;6.01;89.33;102430.47;5077215;28;20397;-77
2021/03/21 02:30:29;;;;;;;19.87;11.40;;;;;;;6.09;89.35;102419.13;5082008;28;20030;-76
2021/03/21 02:33:17;;;;;;;21.67;12.03;;;;;;;6.15;88.96;102416.97;5076488;28;20028;-77
2021/03/21 02:35:49;;;;;;;21.83;12.23;;;;;;;6.20;88.72;102422.41;5081298;28;20016;-78
2021/03/21 02:38:34;;;;;;;20.80;11.60;;;;;;;6.17;88.91;102423.06;5080557;28;20028;-77
2021/03/21 02:41:04;;;;;;;18.87;11.70;;;;;;;6.16;88.92;102413.63;5081765;28;20617;-79
2021/03/21 02:43:40;;;;;;;21.03;12.47;;;;;;;6.10;88.78;102395.38;5084803;28;20493;-78
2021/03/21 02:46:13;;;;;;;23.67;13.07;;;;;;;6.12;89.05;102398.03;5092499;28;20473;-77
2021/03/21 02:48:44;;;;;;;21.97;12.90;;;;;;;6.10;88.99;102395.38;5081276;28;20172;-78
2021/03/21 02:51:15;;;;;;;24.10;12.77;;;;;;;6.12;88.94;102392.91;5103537;28;20020;-77
2021/03/21 02:53:48;;;;;;;25.73;13.17;;;;;;;6.12;88.87;102393.81;5085404;28;20496;-77
2021/03/21 02:56:18;;;;;;;29.33;14.23;;;;;;;6.19;88.67;102393.44;5087918;28;20030;-77
2021/03/21 02:58:49;;;;;;;25.40;14.50;;;;;;;6.27;88.54;102388.84;5086073;28;20028;-76
2021/03/21 03:01:27;;;;;;;27.27;14.77;;;;;;;6.22;88.74;102374.91;5083205;28;20020;-76
2021/03/21 03:03:57;;;;;;;30.67;13.53;;;;;;;6.23;88.86;102371.56;5087394;28;20055;-75
2021/03/21 03:06:42;;;;;;;30.87;14.77;;;;;;;6.28;88.79;102384.63;5082871;28;20034;-78
2021/03/21 03:09:16;;;;;;;31.17;15.00;;;;;;;6.20;89.27;102381.56;5081447;28;20122;-78
2021/03/21 03:11:48;;;;;;;29.03;15.27;;;;;;;6.26;89.18;102393.84;5083713;28;20031;-77
2021/03/21 03:14:20;;;;;;;33.23;16.93;;;;;;;6.28;89.52;102394.84;5087344;28;20060;-77
2021/03/21 03:17:05;;;;;;;33.60;16.67;;;;;;;6.28;89.60;102397.38;5090736;28;20493;-77
2021/03/21 03:19:51;;;;;;;37.63;16.47;;;;;;;6.32;89.72;102395.13;5085632;28;20126;-77
2021/03/21 03:22:37;;;;;;;35.77;18.33;;;;;;;6.33;90.08;102396.00;5085915;28;20027;-76
2021/03/21 03:25:21;;;;;;;37.75;19.05;;;;;;;6.33;90.02;102396.91;5079834;28;20035;-77
2021/03/21 03:28:11;;;;;;;40.60;18.80;;;;;;;6.38;90.30;102402.28;5089653;28;20382;-78
2021/03/21 03:31:04;;;;;;;38.87;18.80;;;;;;;6.37;90.46;102405.63;5083244;28;20028;-77
2021/03/21 03:33:29;;;;;;;42.73;21.03;;;;;;;6.35;90.86;102402.97;5081222;28;20023;-77
2021/03/21 03:35:55;;;;;;;44.35;20.67;;;;;;;6.33;90.90;102389.25;5085910;28;20024;-76
2021/03/21 03:38:21;;;;;;;46.42;20.27;;;;;;;6.35;91.36;102399.56;5080158;28;20051;-77
2021/03/21 03:40:47;;;;;;;;;;;;;;;6.33;91.17;102393.47;5082245;28;20027;-77
2021/03/21 03:43:32;;;;;;;48.00;21.63;;;;;;;6.37;91.34;102408.19;5114771;22;19943;-77
2021/03/21 03:45:57;;;;;;;42.27;21.70;;;;;;;6.38;91.46;102407.41;5104242;28;20524;-77
2021/03/21 03:49:01;;;;;;;54.67;23.37;;;;;;;6.40;91.90;102411.81;5083516;28;20039;-77
2021/03/21 03:51:45;;;;;;;43.23;22.80;;;;;;;6.38;91.87;102422.72;5032925;28;20037;-77
2021/03/21 03:54:19;;;;;;;49.67;23.80;;;;;;;6.40;92.17;102429.69;5091891;28;20115;-77
2021/03/21 03:56:58;;;;;;;52.17;22.97;;;;;;;6.40;92.49;102431.34;5074657;28;20031;-78
2021/03/21 03:59:29;;;;;;;46.47;23.13;;;;;;;6.35;92.95;102430.19;5092388;28;20111;-77
2021/03/21 04:02:06;;;;;;;42.57;21.40;;;;;;;6.42;92.72;102423.00;5074435;28;20077;-77
2021/03/21 04:04:31;;;;;;;;;;;;;;;6.38;92.44;102415.06;5093746;28;20024;-78
2021/03/21 04:07:25;;;;;;;38.47;18.50;;;;;;;6.35;91.95;102418.31;5091101;28;20019;-77
2021/03/21 04:09:59;;;;;;;37.33;16.27;;;;;;;6.34;92.04;102423.31;5073543;28;20032;-78
2021/03/21 04:12:36;;;;;;;29.13;14.90;;;;;;;6.32;91.45;102427.44;5073697;28;20027;-77
2021/03/21 04:15:06;;;;;;;31.10;13.82;;;;;;;6.27;90.95;102424.56;5073758;28;22037;-77
2021/03/21 04:18:11;;;;;;;29.50;13.90;;;;;;;6.18;90.83;102429.06;5072659;28;20461;-77
2021/03/21 04:20:40;;;;;;;27.50;13.03;;;;;;;6.12;90.61;102420.97;4993319;28;20029;-77
2021/03/21 04:23:31;;;;;;;23.60;12.43;;;;;;;6.06;90.88;102429.13;5077217;28;20081;-77
2021/03/21 04:26:05;;;;;;;26.37;13.37;;;;;;;6.02;90.65;102431.38;5090597;28;20503;-77
2021/03/21 04:28:40;;;;;;;22.43;11.60;;;;;;;5.98;90.20;102440.47;5073130;28;20396;-77
2021/03/21 04:31:08;;;;;;;20.90;9.47;;;;;;;5.89;90.52;102438.19;5089682;28;20055;-76
2021/03/21 04:33:38;;;;;;;17.70;8.47;;;;;;;5.89;90.60;102442.38;5092881;28;20019;-78
2021/03/21 04:36:08;;;;;;;22.93;8.33;;;;;;;5.84;90.44;102457.34;5090101;28;20062;-77
2021/03/21 04:38:42;;;;;;;24.03;7.70;;;;;;;5.92;90.33;102457.94;5092168;28;20127;-77
2021/03/21 04:41:10;;;;;;;15.70;7.10;;;;;;;5.95;89.82;102464.91;5073640;28;20487;-77
2021/03/21 04:43:50;;;;;;;17.27;8.17;;;;;;;5.89;90.03;102460.22;5116508;22;20103;-81
2021/03/21 04:46:29;;;;;;;16.60;7.50;;;;;;;5.82;90.47;102469.09;5099458;28;20077;-82
2021/03/21 04:48:55;;;;;;;20.17;7.73;;;;;;;5.83;90.48;102467.44;5086893;28;20031;-80
2021/03/21 04:51:27;;;;;;;16.70;8.23;;;;;;;5.76;90.80;102467.81;5098895;28;20450;-81
2021/03/21 04:54:00;;;;;;;17.13;7.10;;;;;;;5.79;90.86;102471.44;5094987;28;20791;-81
2021/03/21 04:56:39;;;;;;;17.00;5.93;;;;;;;5.77;90.69;102461.94;5093742;28;20024;-80
2021/03/21 04:59:35;;;;;;;15.50;5.77;;;;;;;5.76;89.74;102468.69;5072905;28;20435;-81
2021/03/21 05:02:23;;;;;;;12.13;4.87;;;;;;;5.78;89.80;102468.78;5071590;28;20038;-83
2021/03/21 05:04:57;;;;;;;13.07;4.73;;;;;;;5.69;88.90;102471.59;5093778;28;20035;-80
2021/03/21 05:07:30;;;;;;;10.63;4.27;;;;;;;5.77;88.88;102477.22;5074947;28;20051;-81
2021/03/21 05:10:18;;;;;;;11.20;4.17;;;;;;;5.82;88.44;102475.88;5092038;28;20031;-81
2021/03/21 05:13:05;;;;;;;15.37;4.00;;;;;;;5.85;88.28;102471.91;5091291;28;20121;-80
2021/03/21 05:15:46;;;;;;;14.25;4.47;;;;;;;5.85;87.88;102458.22;5074341;28;20012;-80
2021/03/21 05:18:29;;;;;;;14.13;4.17;;;;;;;5.85;87.76;102460.78;5090744;28;20024;-79
2021/03/21 05:21:05;;;;;;;15.10;3.20;;;;;;;5.92;86.84;102457.94;5073923;28;20081;-79
2021/03/21 05:23:43;;;;;;;9.90;2.60;;;;;;;5.93;87.25;102447.81;5074252;28;20027;-80
2021/03/21 05:26:17;;;;;;;7.07;2.93;;;;;;;5.90;86.50;102450.16;5072967;28;20119;-80
2021/03/21 05:29:14;;;;;;;9.77;3.33;;;;;;;5.90;86.36;102455.28;5074226;28;20091;-81
2021/03/21 05:31:39;;;;;;;13.27;3.00;;;;;;;5.92;86.36;102457.94;5091211;28;20020;-80
2021/03/21 05:34:04;;;;;;;12.18;2.80;;;;;;;5.93;86.14;102467.34;5092873;28;20020;-79
2021/03/21 05:36:35;;;;;;;8.55;2.33;;;;;;;5.92;85.90;102455.38;5074764;28;20024;-80
2021/03/21 05:39:14;;;;;;;11.67;2.30;;;;;;;6.00;85.26;102454.22;5072278;28;20022;-80
2021/03/21 05:41:51;;;;;;;15.77;2.47;;;;;;;5.97;84.78;102461.66;5091217;28;20031;-80
2021/03/21 05:44:38;;;;;;;10.47;2.57;;;;;;;5.97;84.76;102469.31;5089751;28;20047;-79
2021/03/21 05:47:25;;;;;;;9.95;2.63;;;;;;;5.99;85.15;102467.75;5089982;28;20024;-80
2021/03/21 05:50:02;;;;;;;;;;;;;;;5.96;85.26;102466.66;5090503;28;20032;-79
2021/03/21 05:53:02;;;;;;;8.60;2.13;;;;;;;6.00;85.42;102484.84;5073475;28;19919;-79
2021/03/21 05:55:39;;;;;;;13.23;2.77;;;;;;;6.04;84.59;102466.41;5089599;28;20084;-78
2021/03/21 05:58:16;;;;;;;12.27;2.30;;;;;;;6.06;84.82;102480.13;5090240;28;20131;-78
2021/03/21 06:01:08;;;;;;;12.27;2.60;;;;;;;6.06;85.16;102479.25;5073626;28;20873;-79
2021/03/21 06:04:10;;;;;;;11.40;1.90;;;;;;;6.06;85.13;102482.69;5090161;28;20491;-78
2021/03/21 06:07:05;;;;;;;11.40;2.47;;;;;;;6.07;85.05;102479.34;5092201;28;20114;-79
2021/03/21 06:09:40;;;;;;;12.97;2.20;;;;;;;6.12;85.28;102469.47;5091982;28;20115;-79
2021/03/21 06:12:35;;;;;;;17.10;2.20;;;;;;;6.16;85.26;102462.09;5073287;28;20508;-79
2021/03/21 06:15:34;;;;;;;6.30;1.60;;;;;;;6.17;84.60;102478.31;5079005;28;20059;-79
2021/03/21 06:18:13;;;;;;;9.50;2.50;;;;;;;6.17;85.14;102485.97;5089561;28;20059;-80
2021/03/21 06:20:59;;;;;;;13.17;2.57;;;;;;;6.17;85.78;102481.75;5091969;28;20039;-80
2021/03/21 06:23:41;;;;;;;11.77;2.13;;;;;;;6.21;85.72;102491.41;5090724;28;20118;-80
2021/03/21 06:26:32;;;;;;;20.77;2.23;;;;;;;6.24;85.94;102491.59;5091402;28;20103;-81
2021/03/21 06:29:14;;;;;;;12.53;2.07;;;;;;;6.27;86.00;102503.69;5088800;28;20024;-79
2021/03/21 06:31:50;;;;;;;16.27;2.37;;;;;;;6.25;86.38;102500.16;5090686;28;20016;-81
2021/03/21 06:34:27;;;;;;;18.35;2.78;;;;;;;6.32;86.38;102496.34;5091991;28;20023;-79
2021/03/21 06:36:58;;;;;;;;;;;;;;;6.32;86.35;102504.00;5074141;28;20031;-80
2021/03/21 06:39:51;;;;;;;23.23;2.67;;;;;;;6.32;86.78;102504.88;5091136;28;20023;-80
2021/03/21 06:42:28;;;;;;;21.77;2.80;;;;;;;6.35;86.83;102512.72;5071674;28;20036;-79
2021/03/21 06:45:38;;;;;;;14.13;4.17;;;;;;;6.34;86.82;102515.19;5090808;28;20032;-80
2021/03/21 06:48:18;;;;;;;18.77;2.97;;;;;;;6.37;86.74;102517.94;5000337;28;20045;-79
2021/03/21 06:51:21;;;;;;;19.33;2.70;;;;;;;6.33;86.48;102523.63;5084090;28;20493;-79
2021/03/21 06:54:11;;;;;;;21.03;2.93;;;;;;;6.37;86.57;102523.03;5089169;28;20115;-79
2021/03/21 06:56:50;;;;;;;20.17;3.60;;;;;;;6.35;86.67;102529.72;5090769;28;20084;-81
2021/03/21 06:59:49;;;;;;;15.43;3.10;;;;;;;6.35;85.88;102522.94;5090896;28;20028;-79
2021/03/21 07:02:40;;;;;;;10.67;2.10;;;;;;;6.45;84.88;102511.66;5089411;28;20504;-79
2021/03/21 07:05:08;;;;;;;19.07;2.50;;;;;;;6.47;83.60;102511.00;5089384;28;20374;-81
2021/03/21 07:08:04;;;;;;;12.57;2.17;;;;;;;6.44;83.18;102509.91;5091169;28;20038;-79
2021/03/21 07:10:55;;;;;;;16.50;2.50;;;;;;;6.48;82.07;102506.78;5071374;28;20036;-80
2021/03/21 07:14:03;;;;;;;17.13;2.40;;;;;;;6.51;81.54;102519.78;5088624;28;20077;-80
2021/03/21 07:16:56;;;;;;;11.63;2.40;;;;;;;6.52;80.39;102513.88;5072565;28;20028;-80
2021/03/21 07:19:53;;;;;;;11.93;2.10;;;;;;;6.58;81.01;102514.28;5088395;28;20095;-80
2021/03/21 07:22:33;;;;;;;15.03;2.20;;;;;;;6.68;80.35;102516.66;5088085;28;20066;-81
2021/03/21 07:25:23;;;;;;;8.70;1.90;;;;;;;6.68;80.40;102526.88;5072017;28;20077;-81
2021/03/21 07:28:08;;;;;;;18.13;2.33;;;;;;;6.67;79.46;102522.53;5090989;28;20032;-80
2021/03/21 07:30:49;;;;;;;13.27;2.07;;;;;;;6.62;80.13;102529.00;5072404;28;20024;-79
2021/03/21 07:33:28;;;;;;;13.13;2.60;;;;;;;6.57;80.93;102538.03;5092833;28;20046;-79
2021/03/21 07:35:55;;;;;;;20.07;2.33;;;;;;;6.62;79.98;102528.13;5095189;28;20024;-77
2021/03/21 07:38:34;;;;;;;13.17;1.80;;;;;;;6.67;79.68;102530.19;5074808;28;20028;-79
2021/03/21 07:41:24;;;;;;;11.80;1.97;;;;;;;6.71;79.79;102534.72;5090477;28;20107;-78
2021/03/21 07:44:08;;;;;;;17.37;3.40;;;;;;;6.80;78.59;102527.66;5092135;28;20039;-79
2021/03/21 07:47:07;;;;;;;12.77;1.97;;;;;;;6.76;78.02;102524.81;5093964;28;20051;-80
2021/03/21 07:50:02;;;;;;;11.03;1.80;;;;;;;6.73;78.40;102525.50;5092924;28;20020;-80
2021/03/21 07:52:52;;;;;;;11.73;1.93;;;;;;;6.68;78.41;102531.97;5069581;28;20035;-79
2021/03/21 07:55:31;;;;;;;14.80;2.60;;;;;;;6.74;78.85;102531.50;5073579;28;20020;-81
2021/03/21 07:58:32;;;;;;;13.07;1.90;;;;;;;6.83;77.30;102522.78;5091836;28;20016;-81
2021/03/21 08:00:58;;;;;;;11.27;2.60;;;;;;;6.81;77.49;102534.53;5072966;28;20022;-80
2021/03/21 08:03:25;;;;;;;18.60;3.30;;;;;;;6.90;77.94;102530.84;5077658;28;20423;-78
2021/03/21 08:05:54;;;;;;;17.00;2.20;;;;;;;6.88;77.51;102530.75;5094533;28;20039;-80
2021/03/21 08:08:23;;;;;;;11.47;2.20;;;;;;;6.82;76.88;102526.09;5076235;28;20032;-80
2021/03/21 08:10:53;;;;;;;13.37;2.13;;;;;;;6.97;77.13;102527.91;5093197;28;20020;-81
2021/03/21 08:13:44;;;;;;;14.97;2.27;;;;;;;6.93;75.21;102516.59;5092850;28;20031;-81
2021/03/21 08:16:14;;;;;;;17.47;2.23;;;;;;;6.88;76.20;102529.84;5093512;28;20385;-82
2021/03/21 08:18:40;;;;;;;17.47;2.60;;;;;;;6.91;76.47;102538.59;5072486;28;20047;-79
2021/03/21 08:21:13;;;;;;;16.77;2.25;;;;;;;6.82;77.29;102538.84;5075985;28;20023;-78
2021/03/21 08:23:41;;;;;;;16.47;2.20;;;;;;;6.82;76.91;102540.53;5093690;28;20047;-78
2021/03/21 08:26:09;;;;;;;24.80;2.20;;;;;;;6.90;76.62;102544.50;5074502;28;20359;-79
2021/03/21 08:28:54;;;;;;;21.10;2.83;;;;;;;6.97;75.53;102545.78;5073793;28;20077;-80
2021/03/21 08:31:28;;;;;;;14.73;2.27;;;;;;;7.00;77.15;102553.63;5092781;28;20024;-80
2021/03/21 08:33:54;;;;;;;18.40;2.57;;;;;;;6.98;76.06;102552.66;5075485;28;20481;-79
2021/03/21 08:36:27;;;;;;;12.40;2.03;;;;;;;7.01;76.88;102553.75;5093820;28;20032;-79
2021/03/21 08:39:17;;;;;;;17.93;2.30;;;;;;;7.07;75.40;102554.13;5095219;28;20087;-79
2021/03/21 08:41:51;;;;;;;21.43;3.00;;;;;;;7.08;76.09;102547.34;5092209;28;20020;-78
2021/03/21 08:44:33;;;;;;;17.63;2.53;;;;;;;7.17;76.29;102547.97;5092220;28;20024;-80
2021/03/21 08:47:00;;;;;;;17.77;2.43;;;;;;;7.15;74.95;102545.31;5076052;28;20124;-78
2021/03/21 08:49:36;;;;;;;20.07;2.57;;;;;;;7.18;75.18;102557.41;5091589;28;20115;-79
2021/03/21 08:52:02;;;;;;;20.48;2.90;;;;;;;7.16;76.26;102554.75;5075953;28;20024;-80
2021/03/21 08:54:36;;;;;;;22.45;2.85;;;;;;;7.25;74.13;102551.00;5092808;28;20024;-80
2021/03/21 08:57:04;;;;;;;20.27;2.73;;;;;;;7.25;75.08;102557.00;5092455;28;20020;-80
2021/03/21 08:59:44;;;;;;;26.60;3.60;;;;;;;7.31;75.01;102557.41;5074399;28;20056;-80
2021/03/21 09:02:15;;;;;;;22.23;3.33;;;;;;;7.31;73.51;102556.50;5071837;28;20016;-79
2021/03/21 09:05:04;;;;;;;18.83;3.03;;;;;;;7.28;72.04;102551.22;5075288;28;20084;-81
2021/03/21 09:07:35;;;;;;;15.47;2.60;;;;;;;7.19;72.96;102566.84;5074400;28;20072;-80
2021/03/21 09:10:21;;;;;;;19.80;2.23;;;;;;;7.29;73.41;102556.41;5074547;28;20028;-79
2021/03/21 09:13:02;;;;;;;18.00;2.70;;;;;;;7.28;72.49;102553.75;5071131;28;20614;-78
2021/03/21 09:15:30;;;;;;;18.00;2.73;;;;;;;7.39;74.31;102563.88;5090242;28;20556;-82
2021/03/21 09:18:16;;;;;;;18.80;2.70;;;;;;;7.53;71.84;102558.78;5092886;28;20035;-77
2021/03/21 09:20:59;;;;;;;17.25;2.55;;;;;;;7.51;71.39;102560.34;5075538;28;20122;-80
2021/03/21 09:23:40;;;;;;;18.63;3.20;;;;;;;7.49;72.05;102570.50;5092605;28;20028;-80
2021/03/21 09:26:11;;;;;;;21.77;3.57;;;;;;;7.32;72.11;102569.38;5085353;28;20436;-78
2021/03/21 09:28:38;;;;;;;18.03;2.63;;;;;;;7.31;73.62;102582.06;5060491;28;20037;-77
2021/03/21 09:31:12;;;;;;;19.83;3.17;;;;;;;7.29;73.52;102581.97;5077567;28;20027;-78
2021/03/21 09:33:46;;;;;;;22.67;2.90;;;;;;;7.47;73.96;102575.47;5051252;28;20554;-80
2021/03/21 09:36:12;;;;;;;14.10;2.90;;;;;;;7.53;71.27;102579.22;5089894;28;20618;-79
2021/03/21 09:38:49;;;;;;;14.02;2.88;;;;;;;7.55;72.48;102573.44;5091474;28;20031;-79
2021/03/21 09:41:15;;;;;;;19.10;2.63;;;;;;;7.63;71.68;102579.03;5091889;28;20051;-80
2021/03/21 09:43:41;;;;;;;24.50;3.63;;;;;;;7.71;72.84;102583.81;5075877;28;20044;-82
2021/03/21 09:46:06;;;;;;;24.05;3.63;;;;;;;7.79;70.85;102584.28;5073989;28;20146;-78
2021/03/21 09:49:12;;;;;;;21.93;2.80;;;;;;;7.82;69.54;102589.63;5091528;28;20031;-78
2021/03/21 09:51:57;;;;;;;26.37;3.83;;;;;;;7.71;67.42;102595.72;5093271;28;20513;-78
2021/03/21 09:54:36;;;;;;;28.87;3.60;;;;;;;7.68;69.51;102598.09;5094929;28;20032;-79
2021/03/21 09:57:35;;;;;;;27.83;3.27;;;;;;;7.66;69.15;102595.44;5093304;28;20020;-79
2021/03/21 10:00:12;;;;;;;21.17;3.00;;;;;;;7.68;69.45;102601.53;5074786;28;20092;-80
2021/03/21 10:02:45;;;;;;;26.30;3.30;;;;;;;7.66;68.26;102609.91;5074381;28;20167;-79
2021/03/21 10:05:16;;;;;;;19.37;3.17;;;;;;;7.61;69.64;102616.41;5093784;28;20035;-78
2021/03/21 10:08:03;;;;;;;29.80;3.90;;;;;;;7.62;67.66;102613.06;5092089;28;20028;-78
2021/03/21 10:10:34;;;;;;;22.67;3.22;;;;;;;7.59;69.11;102623.09;5074085;28;20024;-77
2021/03/21 10:13:00;;;;;;;27.67;4.07;;;;;;;7.52;68.97;102626.06;5092137;28;20023;-80
2021/03/21 10:15:26;;;;;;;25.55;3.72;;;;;;;7.74;69.09;102624.06;5093595;28;20024;-80
2021/03/21 10:18:00;;;;;;;25.00;4.07;;;;;;;7.76;67.50;102608.00;5092898;28;20036;-76
2021/03/21 10:20:53;;;;;;;25.73;4.23;;;;;;;7.65;66.84;102624.38;5092780;28;20035;-79
2021/03/21 10:23:18;;;;;;;25.33;4.37;;;;;;;7.59;67.14;102623.97;5072719;28;20024;-79
2021/03/21 10:25:43;;;;;;;27.73;4.25;;;;;;;7.61;67.38;102624.06;5075938;28;20035;-77
2021/03/21 10:28:34;;;;;;;21.17;3.77;;;;;;;7.59;66.47;102623.09;5075717;28;20058;-77
2021/03/21 10:31:26;;;;;;;27.70;3.87;;;;;;;7.72;67.76;102625.63;5092804;28;20028;-79
2021/03/21 10:33:54;;;;;;;27.30;3.87;;;;;;;7.77;65.44;102619.13;5072312;28;20097;-79
2021/03/21 10:36:41;;;;;;;23.90;3.37;;;;;;;8.96;64.10;102618.78;5076999;28;20552;-78
2021/03/21 10:39:26;;;;;;;16.65;2.97;;;;;;;9.79;60.34;102624.38;5093936;28;20020;-77
2021/03/21 10:41:52;;;;;;;27.93;4.00;;;;;;;9.59;61.04;102615.56;5059131;28;20032;-77
2021/03/21 10:44:30;;;;;;;20.77;3.15;;;;;;;8.89;60.89;102619.22;5108644;22;20101;-76
2021/03/21 10:46:55;;;;;;;24.23;4.20;;;;;;;8.59;62.07;102621.72;5090875;28;20024;-77
2021/03/21 10:49:50;;;;;;;29.35;4.15;;;;;;;8.51;62.31;102620.41;5071059;28;20031;-74
2021/03/21 10:52:27;;;;;;;29.50;3.97;;;;;;;8.35;61.57;102608.31;5100518;28;20024;-77
2021/03/21 10:55:26;;;;;;;22.60;4.28;;;;;;;8.45;62.79;102632.78;5086943;28;20046;-75
2021/03/21 10:57:52;;;;;;;29.00;4.60;;;;;;;8.58;62.18;102631.88;5076870;28;20055;-76
2021/03/21 11:00:27;;;;;;;19.58;3.85;;;;;;;8.42;62.52;102635.19;5100137;28;20051;-74
2021/03/21 11:03:01;;;;;;;20.80;3.90;;;;;;;8.30;63.44;102636.97;5087980;28;20063;-76
2021/03/21 11:05:42;;;;;;;22.97;3.77;;;;;;;8.10;63.71;102635.72;5100231;28;20031;-77
2021/03/21 11:08:14;;;;;;;15.30;3.40;;;;;;;8.11;64.50;102635.81;5103852;28;20063;-76
2021/03/21 11:10:41;;;;;;;28.03;3.87;;;;;;;8.04;64.14;102635.34;5092000;28;20057;-76
2021/03/21 11:13:09;;;;;;;26.27;4.00;;;;;;;8.22;66.08;102627.94;5085385;28;20036;-76
2021/03/21 11:15:41;;;;;;;28.87;4.87;;;;;;;8.23;64.17;102622.91;5098822;28;20645;-76
2021/03/21 11:18:23;;;;;;;25.47;4.47;;;;;;;8.29;63.94;102630.97;5094848;28;20070;-73
2021/03/21 11:20:49;;;;;;;32.03;4.97;;;;;;;8.31;63.23;102625.94;5102847;28;20075;-75
2021/03/21 11:23:20;;;;;;;30.45;5.20;;;;;;;8.34;64.01;102626.16;5085467;28;20023;-75
2021/03/21 11:25:45;;;;;;;32.77;4.00;;;;;;;8.28;64.11;102631.75;5080147;28;20030;-76
2021/03/21 11:28:38;;;;;;;29.90;4.70;;;;;;;8.32;65.22;102626.03;5105399;28;20397;-75
2021/03/21 11:31:09;;;;;;;27.23;4.60;;;;;;;8.40;64.24;102623.97;5092872;28;20024;-76
2021/03/21 11:33:45;;;;;;;24.00;3.70;;;;;;;8.48;64.12;102619.31;5091842;28;20621;-75
2021/03/21 11:36:19;;;;;;;21.77;4.00;;;;;;;8.31;63.07;102626.81;5090852;28;20035;-76
2021/03/21 11:38:46;;;;;;;20.57;3.60;;;;;;;8.24;63.82;102628.91;5095815;28;20031;-74
2021/03/21 11:41:37;;;;;;;16.23;3.90;;;;;;;8.04;64.50;102627.66;5094714;28;20027;-74
2021/03/21 11:44:11;;;;;;;29.10;4.13;;;;;;;8.20;63.58;102629.53;5107455;28;20028;-76
2021/03/21 11:46:36;;;;;;;26.23;4.23;;;;;;;8.20;62.37;102632.09;5075894;28;20737;-75
2021/03/21 11:49:02;;;;;;;24.98;3.80;;;;;;;8.15;63.04;102643.72;5077664;28;20062;-76
2021/03/21 11:51:28;;;;;;;22.08;3.97;;;;;;;8.27;63.95;102637.66;5096324;28;20028;-74
2021/03/21 11:53:55;;;;;;;22.42;4.00;;;;;;;8.44;62.01;102638.72;5082368;28;20054;-75
2021/03/21 11:56:34;;;;;;;20.53;3.87;;;;;;;8.51;62.58;102635.75;5107327;28;20023;-75
2021/03/21 11:59:05;;;;;;;26.40;3.70;;;;;;;8.54;62.77;102635.94;5074675;28;20040;-76
2021/03/21 12:01:33;;;;;;;28.70;3.73;;;;;;;8.61;62.36;102643.19;5094139;28;20082;-76
2021/03/21 12:04:04;;;;;;;24.27;3.70;;;;;;;8.68;62.28;102629.97;5092762;28;20035;-74
2021/03/21 12:06:49;;;;;;;25.07;3.80;;;;;;;8.72;62.18;102626.78;5085672;28;20459;-76
2021/03/21 12:09:50;;;;;;;21.23;3.90;;;;;;;8.47;62.47;102638.03;5107423;28;20045;-78